createdAt,value
2023-05-19T00:01:19.302Z,2.92
2023-05-19T00:03:54.774Z,3.22
2023-05-19T00:06:26.947Z,3.78
2023-05-19T00:08:58.753Z,2.95
2023-05-19T00:11:26.965Z,5.22
2023-05-19T00:13:55.320Z,3.78
2023-05-19T00:16:26.483Z,3.47
2023-05-19T00:18:54.287Z,3.97
2023-05-19T00:21:21.276Z,3.78
2023-05-19T00:23:48.029Z,2.97
2023-05-19T00:26:15.024Z,3.55
2023-05-19T00:28:41.857Z,3.45
2023-05-19T00:31:08.701Z,4.43
2023-05-19T00:33:35.838Z,3.55
2023-05-19T00:36:04.017Z,2.90
2023-05-19T00:38:32.177Z,4.75
2023-05-19T00:40:59.736Z,4.35
2023-05-19T00:43:27.077Z,5.07
2023-05-19T00:45:53.966Z,6.47
2023-05-19T00:48:21.125Z,4.80
2023-05-19T00:50:49.102Z,3.13
2023-05-19T00:53:18.456Z,6.60
2023-05-19T00:55:46.373Z,4.25
2023-05-19T00:58:14.620Z,4.18
2023-05-19T01:00:43.744Z,4.18
2023-05-19T01:03:15.155Z,4.05
2023-05-19T01:05:44.869Z,5.32
2023-05-19T01:08:12.329Z,4.20
2023-05-19T01:10:39.259Z,3.13
2023-05-19T01:13:06.641Z,6.53
2023-05-19T01:15:52.975Z,4.22
2023-05-19T01:18:27.855Z,3.53
2023-05-19T01:21:26.186Z,3.72
2023-05-19T01:24:13.315Z,6.53
2023-05-19T01:26:48.751Z,3.83
2023-05-19T01:29:37.165Z,4.18
2023-05-19T01:32:06.512Z,3.88
2023-05-19T01:34:38.984Z,4.55
2023-05-19T01:37:07.509Z,4.32
2023-05-19T01:39:35.901Z,4.55
2023-05-19T01:42:04.181Z,5.00
2023-05-19T01:44:32.264Z,4.00
2023-05-19T01:47:00.846Z,4.68
2023-05-19T01:49:27.714Z,3.15
2023-05-19T01:51:54.554Z,4.10
2023-05-19T01:54:21.542Z,3.60
2023-05-19T01:56:56.826Z,5.30
2023-05-19T01:59:42.054Z,4.65
2023-05-19T02:02:32.224Z,3.63
2023-05-19T02:05:09.665Z,3.72
2023-05-19T02:07:44.571Z,5.25
2023-05-19T02:10:19.295Z,4.60
2023-05-19T02:12:46.939Z,2.97
2023-05-19T02:15:20.846Z,3.33
2023-05-19T02:20:18.063Z,3.25
2023-05-19T02:22:45.140Z,6.30
2023-05-19T02:25:11.912Z,4.30
2023-05-19T02:27:39.410Z,3.53
2023-05-19T02:30:08.277Z,4.85
2023-05-19T02:32:36.531Z,4.47
2023-05-19T02:35:04.077Z,3.85
2023-05-19T02:37:31.238Z,4.82
2023-05-19T02:39:58.344Z,3.83
2023-05-19T02:42:25.333Z,3.58
2023-05-19T02:44:54.278Z,5.25
2023-05-19T02:47:21.232Z,4.85
2023-05-19T02:49:48.100Z,5.63
2023-05-19T02:52:14.955Z,5.50
2023-05-19T02:54:41.808Z,4.90
2023-05-19T02:57:08.673Z,3.85
2023-05-19T02:59:35.538Z,3.95
2023-05-19T03:02:02.939Z,4.55
2023-05-19T03:04:30.232Z,4.50
2023-05-19T03:06:57.858Z,4.55
2023-05-19T03:09:24.827Z,4.50
2023-05-19T03:11:51.777Z,3.30
2023-05-19T03:14:18.872Z,5.05
2023-05-19T03:16:45.938Z,4.35
2023-05-19T03:19:13.028Z,4.75
2023-05-19T03:21:39.946Z,4.35
2023-05-19T03:24:07.259Z,4.90
2023-05-19T03:26:34.049Z,4.38
2023-05-19T03:29:01.175Z,4.68
2023-05-19T03:31:28.472Z,6.90
2023-05-19T03:33:55.331Z,4.97
2023-05-19T03:36:22.624Z,5.22
2023-05-19T03:38:49.635Z,4.72
2023-05-19T03:41:16.493Z,6.63
2023-05-19T03:43:43.319Z,5.70
2023-05-19T03:46:10.279Z,4.35
2023-05-19T03:48:37.129Z,3.53
2023-05-19T03:51:04.482Z,5.68
2023-05-19T03:53:31.340Z,5.13
2023-05-19T03:55:59.478Z,3.85
2023-05-19T04:01:12.033Z,5.20
2023-05-19T04:03:38.880Z,4.95
2023-05-19T04:06:06.497Z,4.95
2023-05-19T04:08:33.364Z,4.32
2023-05-19T04:11:00.177Z,4.07
2023-05-19T04:13:27.052Z,5.30
2023-05-19T04:15:53.946Z,5.75
2023-05-19T04:18:20.997Z,5.97
2023-05-19T04:20:47.777Z,5.43
2023-05-19T04:23:14.600Z,5.80
2023-05-19T04:25:42.242Z,7.70
2023-05-19T04:28:09.082Z,7.57
2023-05-19T04:30:37.058Z,6.00
2023-05-19T04:33:04.990Z,4.97
2023-05-19T04:35:32.078Z,7.15
2023-05-19T04:37:58.955Z,6.20
2023-05-19T04:40:26.053Z,7.15
2023-05-19T04:42:54.183Z,6.05
2023-05-19T04:45:21.033Z,5.95
2023-05-19T04:47:48.310Z,6.28
2023-05-19T04:50:16.452Z,6.07
2023-05-19T04:52:45.684Z,5.30
2023-05-19T04:55:13.357Z,5.85
2023-05-19T04:57:40.407Z,5.75
2023-05-19T05:00:13.753Z,5.45
2023-05-19T05:02:42.956Z,5.82
2023-05-19T05:05:10.248Z,5.88
2023-05-19T05:07:37.112Z,6.53
2023-05-19T05:10:04.418Z,4.75
2023-05-19T05:12:32.185Z,4.97
2023-05-19T05:14:59.793Z,5.35
2023-05-19T05:17:27.223Z,5.13
2023-05-19T05:19:54.540Z,5.75
2023-05-19T05:22:21.629Z,5.65
2023-05-19T05:24:48.830Z,5.07
2023-05-19T05:27:15.726Z,5.25
2023-05-19T05:29:42.637Z,7.07
2023-05-19T05:32:09.557Z,7.93
2023-05-19T05:34:38.165Z,4.75
2023-05-19T05:37:05.182Z,7.35
2023-05-19T05:39:32.004Z,6.57
2023-05-19T05:41:58.820Z,4.93
2023-05-19T05:44:25.684Z,6.55
2023-05-19T05:46:52.780Z,6.55
2023-05-19T05:49:19.923Z,6.28
2023-05-19T05:51:54.701Z,6.30
2023-05-19T05:54:32.463Z,6.75
2023-05-19T05:56:59.656Z,7.32
2023-05-19T05:59:26.563Z,5.70
2023-05-19T06:01:53.610Z,5.60
2023-05-19T06:04:21.331Z,8.18
2023-05-19T06:06:48.235Z,6.53
2023-05-19T06:09:15.060Z,6.68
2023-05-19T06:11:41.870Z,5.65
2023-05-19T06:14:08.766Z,6.65
2023-05-19T06:16:35.782Z,7.13
2023-05-19T06:19:02.802Z,6.25
2023-05-19T06:21:29.755Z,9.18
2023-05-19T06:23:56.554Z,6.63
2023-05-19T06:26:23.362Z,7.28
2023-05-19T06:28:50.200Z,7.30
2023-05-19T06:31:17.859Z,5.95
2023-05-19T06:33:44.705Z,5.35
2023-05-19T06:36:11.945Z,6.32
2023-05-19T06:38:38.773Z,6.18
2023-05-19T06:41:05.727Z,5.53
2023-05-19T06:43:32.704Z,5.80
2023-05-19T06:45:59.541Z,5.70
2023-05-19T06:48:26.300Z,4.82
2023-05-19T06:50:53.144Z,5.00
2023-05-19T06:53:21.636Z,7.57
2023-05-19T06:55:59.509Z,5.70
2023-05-19T06:58:27.246Z,5.72
2023-05-19T07:00:54.371Z,5.53
2023-05-19T07:03:21.362Z,5.82
2023-05-19T07:05:48.258Z,5.43
2023-05-19T07:08:15.112Z,5.10
2023-05-19T07:10:41.933Z,5.88
2023-05-19T07:13:08.709Z,6.22
2023-05-19T07:15:35.529Z,4.60
2023-05-19T07:18:02.407Z,5.15
2023-05-19T07:20:29.293Z,6.05
2023-05-19T07:22:56.149Z,6.25
2023-05-19T07:25:23.021Z,6.55
2023-05-19T07:27:49.824Z,6.03
2023-05-19T07:30:16.644Z,5.50
2023-05-19T07:32:43.643Z,6.32
2023-05-19T07:35:10.741Z,5.07
2023-05-19T07:37:38.252Z,4.63
2023-05-19T07:40:09.453Z,6.25
2023-05-19T07:42:36.342Z,7.30
2023-05-19T07:45:03.649Z,7.22
2023-05-19T07:47:31.336Z,7.68
2023-05-19T07:49:58.175Z,6.00
2023-05-19T07:52:25.057Z,5.72
2023-05-19T07:54:51.837Z,7.57
2023-05-19T07:57:19.090Z,7.85
2023-05-19T07:59:46.059Z,8.27
2023-05-19T08:02:13.022Z,5.60
2023-05-19T08:04:39.937Z,5.85
2023-05-19T08:07:06.889Z,7.43
2023-05-19T08:09:33.701Z,6.53
2023-05-19T08:12:01.742Z,7.35
2023-05-19T08:14:28.571Z,7.93
2023-05-19T08:16:55.497Z,5.80
2023-05-19T08:19:22.438Z,6.88
2023-05-19T08:21:49.737Z,6.45
2023-05-19T08:24:16.625Z,7.55
2023-05-19T08:26:44.471Z,8.15
2023-05-19T08:29:11.476Z,7.35
2023-05-19T08:31:38.420Z,5.95
2023-05-19T08:34:05.287Z,7.18
2023-05-19T08:36:32.132Z,5.28
2023-05-19T08:38:58.897Z,6.80
2023-05-19T08:41:26.409Z,7.05
2023-05-19T08:43:53.367Z,6.00
2023-05-19T08:46:24.765Z,7.35
2023-05-19T08:48:57.860Z,7.95
2023-05-19T08:51:33.289Z,5.27
2023-05-19T08:54:12.636Z,8.30
2023-05-19T08:56:39.500Z,6.80
2023-05-19T08:59:07.064Z,5.78
2023-05-19T09:01:34.381Z,7.15
2023-05-19T09:04:01.617Z,7.35
2023-05-19T09:06:32.426Z,8.02
2023-05-19T09:08:59.208Z,6.55
2023-05-19T09:11:27.610Z,6.82
2023-05-19T09:13:54.394Z,7.88
2023-05-19T09:16:21.693Z,11.57
2023-05-19T09:18:58.635Z,5.10
2023-05-19T09:21:32.258Z,7.43
2023-05-19T09:24:09.662Z,6.45
2023-05-19T09:26:41.541Z,15.65
2023-05-19T09:29:18.460Z,7.00
2023-05-19T09:31:50.631Z,7.18
2023-05-19T09:34:18.283Z,7.57
2023-05-19T09:36:49.497Z,6.15
2023-05-19T09:39:17.511Z,7.50
2023-05-19T09:41:45.061Z,6.65
2023-05-19T09:44:29.994Z,5.28
2023-05-19T09:46:58.222Z,6.65
2023-05-19T09:49:29.697Z,6.00
2023-05-19T09:51:58.173Z,6.63
2023-05-19T09:54:28.464Z,6.28
2023-05-19T09:57:02.506Z,5.78
2023-05-19T09:59:33.530Z,6.55
2023-05-19T10:02:02.665Z,4.85
2023-05-19T10:04:31.598Z,6.22
2023-05-19T10:06:59.828Z,5.43
2023-05-19T10:09:30.836Z,5.55
2023-05-19T10:11:59.296Z,5.45
2023-05-19T10:14:27.771Z,7.95
2023-05-19T10:16:56.448Z,8.35
2023-05-19T10:19:27.984Z,6.15
2023-05-19T10:21:56.083Z,11.18
2023-05-19T10:24:23.079Z,7.53
2023-05-19T10:27:02.416Z,6.60
2023-05-19T10:29:33.280Z,6.93
2023-05-19T10:32:06.770Z,7.35
2023-05-19T10:34:57.837Z,6.35
2023-05-19T10:37:55.298Z,5.43
2023-05-19T10:40:29.339Z,6.63
2023-05-19T10:42:56.128Z,6.35
2023-05-19T10:45:27.031Z,6.65
2023-05-19T10:47:54.850Z,6.47
2023-05-19T10:50:21.796Z,5.90
2023-05-19T10:52:56.506Z,8.70
2023-05-19T10:55:46.574Z,6.70
2023-05-19T10:58:13.423Z,5.45
2023-05-19T11:00:41.770Z,5.60
2023-05-19T11:03:24.468Z,8.88
2023-05-19T11:05:52.366Z,6.32
2023-05-19T11:08:33.577Z,6.90
2023-05-19T11:11:14.399Z,6.93
2023-05-19T11:13:47.010Z,6.05
2023-05-19T11:16:14.237Z,7.47
2023-05-19T11:18:41.212Z,8.68
2023-05-19T11:21:08.076Z,5.47
2023-05-19T11:23:39.054Z,5.13
2023-05-19T11:26:08.555Z,5.03
2023-05-19T11:28:36.520Z,5.72
2023-05-19T11:31:08.047Z,7.03
2023-05-19T11:33:35.241Z,6.65
2023-05-19T11:36:04.415Z,4.97
2023-05-19T11:38:32.399Z,4.95
2023-05-19T11:41:00.753Z,4.85
2023-05-19T11:43:27.753Z,5.22
2023-05-19T11:45:55.961Z,5.03
2023-05-19T11:48:23.736Z,5.00
2023-05-19T11:50:51.094Z,5.30
2023-05-19T11:53:19.852Z,7.32
2023-05-19T11:55:48.108Z,7.18
2023-05-19T11:58:15.485Z,6.35
2023-05-19T12:00:46.056Z,5.53
2023-05-19T12:03:13.383Z,4.90
2023-05-19T12:05:45.708Z,5.50
2023-05-19T12:08:13.111Z,5.88
2023-05-19T12:10:41.042Z,6.50
2023-05-19T12:13:10.014Z,6.13
2023-05-19T12:15:37.514Z,4.75
2023-05-19T12:18:04.837Z,5.57
2023-05-19T12:20:32.688Z,5.13
2023-05-19T12:23:01.200Z,4.25
2023-05-19T12:25:29.714Z,4.78
2023-05-19T12:28:05.636Z,4.68
2023-05-19T12:30:34.720Z,6.38
2023-05-19T12:33:02.715Z,5.75
2023-05-19T12:35:36.387Z,6.75
2023-05-19T12:38:05.036Z,5.32
2023-05-19T12:40:34.041Z,8.35
2023-05-19T12:43:01.542Z,7.25
2023-05-19T12:45:28.961Z,8.25
2023-05-19T12:47:56.593Z,6.70
2023-05-19T12:50:31.151Z,6.90
2023-05-19T12:52:59.885Z,5.55
2023-05-19T12:55:26.861Z,9.35
2023-05-19T12:57:57.176Z,8.18
2023-05-19T13:00:28.345Z,7.97
2023-05-19T13:03:09.836Z,9.27
2023-05-19T13:05:39.583Z,7.70
2023-05-19T13:08:14.752Z,5.75
2023-05-19T13:10:43.357Z,7.97
2023-05-19T13:13:11.072Z,7.40
2023-05-19T13:15:43.447Z,5.60
2023-05-19T13:18:13.170Z,6.10
2023-05-19T13:20:42.061Z,8.80
2023-05-19T13:23:11.360Z,7.20
2023-05-19T13:25:38.257Z,6.30
2023-05-19T13:28:05.496Z,5.70
2023-05-19T13:30:34.497Z,6.30
2023-05-19T13:33:02.025Z,7.78
2023-05-19T13:35:29.513Z,6.45
2023-05-19T13:37:56.467Z,5.97
2023-05-19T13:40:24.512Z,6.15
2023-05-19T13:42:51.352Z,5.85
2023-05-19T13:45:18.456Z,6.03
2023-05-19T13:47:45.357Z,7.35
2023-05-19T13:50:12.474Z,6.38
2023-05-19T13:52:39.725Z,5.60
2023-05-19T13:55:07.552Z,13.15
2023-05-19T13:57:34.428Z,5.45
2023-05-19T14:00:03.727Z,10.02
2023-05-19T14:02:31.248Z,5.88
2023-05-19T14:04:58.354Z,4.03
2023-05-19T14:07:25.726Z,4.18
2023-05-19T14:09:52.845Z,3.63
2023-05-19T14:12:23.199Z,4.30
2023-05-19T14:14:52.206Z,2.38
2023-05-19T14:17:19.036Z,3.05
2023-05-19T14:19:45.979Z,2.22
2023-05-19T14:22:13.439Z,1.98
2023-05-19T14:24:41.529Z,4.47
2023-05-19T14:27:08.426Z,2.22
2023-05-19T14:29:35.499Z,4.88
2023-05-19T14:32:03.529Z,2.05
2023-05-19T14:34:30.743Z,1.77
2023-05-19T14:36:57.813Z,4.85
2023-05-19T14:39:24.716Z,1.48
2023-05-19T14:41:52.906Z,1.55
2023-05-19T14:44:19.800Z,3.08
2023-05-19T14:46:46.687Z,1.52
2023-05-19T14:49:13.592Z,3.17
2023-05-19T14:51:40.429Z,12.10
2023-05-19T14:54:07.276Z,2.30
2023-05-19T14:56:35.171Z,4.45
2023-05-19T14:59:01.925Z,1.73
2023-05-19T15:01:28.765Z,2.03
2023-05-19T15:03:55.643Z,1.92
2023-05-19T15:06:23.537Z,1.13
2023-05-19T15:08:50.393Z,5.13
2023-05-19T15:11:17.203Z,1.77
2023-05-19T15:13:44.074Z,2.33
2023-05-19T15:16:17.288Z,2.15
2023-05-19T15:18:44.805Z,1.20
2023-05-19T15:21:11.761Z,1.15
2023-05-19T15:23:38.494Z,1.52
2023-05-19T15:26:05.453Z,2.22
2023-05-19T15:28:32.402Z,1.83
2023-05-19T15:30:59.250Z,1.38
2023-05-19T15:33:26.140Z,1.52
2023-05-19T15:35:53.370Z,1.83
2023-05-19T15:38:20.512Z,1.60
2023-05-19T15:40:47.417Z,1.65
2023-05-19T15:43:14.755Z,1.05
2023-05-19T15:45:41.657Z,1.10
2023-05-19T15:48:08.680Z,1.52
2023-05-19T15:50:36.155Z,1.88
2023-05-19T15:53:03.654Z,4.40
2023-05-19T15:55:30.502Z,3.35
2023-05-19T15:57:57.410Z,1.00
2023-05-19T16:00:24.287Z,2.70
2023-05-19T16:02:51.267Z,2.50
2023-05-19T16:05:18.413Z,2.95
2023-05-19T16:07:45.485Z,2.08
2023-05-19T16:10:12.441Z,2.08
2023-05-19T16:12:39.272Z,2.83
2023-05-19T16:15:06.626Z,2.72
2023-05-19T16:17:33.691Z,2.08
2023-05-19T16:20:00.675Z,2.25
2023-05-19T16:22:27.559Z,2.20
2023-05-19T16:24:54.346Z,2.47
2023-05-19T16:27:21.212Z,2.50
2023-05-19T16:29:48.121Z,2.53
2023-05-19T16:32:15.067Z,1.30
2023-05-19T16:34:41.996Z,2.85
2023-05-19T16:37:08.775Z,3.33
2023-05-19T16:39:38.467Z,4.18
2023-05-19T16:42:05.861Z,3.42
2023-05-19T16:44:32.680Z,3.15
2023-05-19T16:46:59.519Z,3.70
2023-05-19T16:49:26.396Z,3.38
2023-05-19T16:51:54.219Z,3.30
2023-05-19T16:54:21.423Z,2.20
2023-05-19T16:56:48.310Z,3.25
2023-05-19T16:59:15.144Z,2.00
2023-05-19T17:01:42.128Z,1.77
2023-05-19T17:04:09.345Z,1.45
2023-05-19T17:06:36.228Z,2.30
2023-05-19T17:09:03.150Z,0.75
2023-05-19T17:11:29.917Z,1.48
2023-05-19T17:13:56.735Z,2.67
2023-05-19T17:16:24.087Z,2.17
2023-05-19T17:18:51.510Z,1.83
2023-05-19T17:21:18.421Z,2.63
2023-05-19T17:23:45.266Z,4.85
2023-05-19T17:26:12.127Z,3.15
2023-05-19T17:28:38.935Z,2.55
2023-05-19T17:31:12.373Z,3.60
2023-05-19T17:33:39.359Z,1.90
2023-05-19T17:36:08.035Z,4.00
2023-05-19T17:38:35.708Z,2.97
2023-05-19T17:41:03.066Z,2.72
2023-05-19T17:43:29.989Z,3.13
2023-05-19T17:45:58.150Z,3.05
2023-05-19T17:48:25.970Z,4.30
2023-05-19T17:50:52.724Z,3.10
2023-05-19T17:53:19.938Z,2.25
2023-05-19T17:55:51.254Z,2.38
2023-05-19T17:58:18.910Z,2.83
2023-05-19T18:00:46.173Z,1.92
2023-05-19T18:03:13.385Z,3.88
2023-05-19T18:05:43.229Z,3.65
2023-05-19T18:08:10.342Z,2.15
2023-05-19T18:10:38.873Z,2.13
2023-05-19T18:13:07.357Z,2.35
2023-05-19T18:15:34.679Z,2.30
2023-05-19T18:18:03.026Z,4.40
2023-05-19T18:20:34.066Z,2.40
2023-05-19T18:23:01.573Z,4.03
2023-05-19T18:25:28.434Z,2.70
2023-05-19T18:27:58.019Z,2.67
2023-05-19T18:30:24.879Z,2.92
2023-05-19T18:32:51.743Z,3.30
2023-05-19T18:35:20.788Z,2.88
2023-05-19T18:37:47.603Z,3.63
2023-05-19T18:40:14.441Z,4.18
2023-05-19T18:42:41.261Z,1.58
2023-05-19T18:45:08.533Z,3.40
2023-05-19T18:47:35.445Z,1.52
2023-05-19T18:50:02.265Z,2.10
2023-05-19T18:52:30.809Z,3.60
2023-05-19T18:54:57.698Z,3.58
2023-05-19T18:57:24.491Z,3.75
2023-05-19T18:59:51.647Z,2.83
2023-05-19T19:02:18.514Z,2.63
2023-05-19T19:04:45.457Z,2.45
2023-05-19T19:07:12.369Z,3.90
2023-05-19T19:09:39.602Z,2.17
2023-05-19T19:12:06.857Z,3.05
2023-05-19T19:14:33.653Z,1.95
2023-05-19T19:17:00.662Z,3.00
2023-05-19T19:19:29.866Z,2.08
2023-05-19T19:21:57.081Z,3.47
2023-05-19T19:24:26.413Z,3.28
2023-05-19T19:26:53.318Z,2.22
2023-05-19T19:29:21.894Z,3.00
2023-05-19T19:31:49.027Z,3.47
2023-05-19T19:34:16.138Z,5.38
2023-05-19T19:36:43.922Z,3.92
2023-05-19T19:39:10.763Z,2.80
2023-05-19T19:41:37.693Z,2.78
2023-05-19T19:44:06.074Z,3.20
2023-05-19T19:46:32.898Z,3.03
2023-05-19T19:49:00.441Z,1.52
2023-05-19T19:51:28.179Z,4.32
2023-05-19T19:53:55.103Z,2.05
2023-05-19T19:56:24.661Z,2.40
2023-05-19T19:58:51.634Z,3.78
2023-05-19T20:01:20.681Z,2.60
2023-05-19T20:03:48.112Z,2.58
2023-05-19T20:06:15.408Z,2.75
2023-05-19T20:08:42.310Z,2.17
2023-05-19T20:11:09.236Z,2.72
2023-05-19T20:13:36.499Z,3.67
2023-05-19T20:16:03.367Z,4.30
2023-05-19T20:18:30.310Z,3.40
2023-05-19T20:20:58.497Z,2.22
2023-05-19T20:23:25.391Z,4.63
2023-05-19T20:26:10.346Z,2.58
2023-05-19T20:28:39.189Z,3.72
2023-05-19T20:31:06.396Z,3.78
2023-05-19T20:33:33.268Z,2.72
2023-05-19T20:36:00.323Z,4.50
2023-05-19T20:38:27.134Z,4.22
2023-05-19T20:40:54.842Z,3.88
2023-05-19T20:43:21.781Z,2.90
2023-05-19T20:45:48.857Z,3.90
2023-05-19T20:48:16.031Z,7.53
2023-05-19T20:50:42.980Z,3.47
2023-05-19T20:53:09.843Z,4.15
2023-05-19T20:55:37.877Z,3.55
2023-05-19T20:58:04.784Z,4.93
2023-05-19T21:00:32.084Z,4.15
2023-05-19T21:02:59.153Z,4.97
2023-05-19T21:05:26.136Z,3.17
2023-05-19T21:07:52.963Z,3.63
2023-05-19T21:10:19.777Z,4.05
2023-05-19T21:12:46.741Z,2.50
2023-05-19T21:15:13.585Z,4.47
2023-05-19T21:17:40.602Z,5.15
2023-05-19T21:20:08.132Z,5.43
2023-05-19T21:22:36.059Z,4.38
2023-05-19T21:25:03.024Z,4.18
2023-05-19T21:27:32.290Z,3.83
2023-05-19T21:29:59.656Z,4.05
2023-05-19T21:32:27.365Z,2.92
2023-05-19T21:34:54.111Z,3.83
2023-05-19T21:37:21.713Z,3.65
2023-05-19T21:39:49.014Z,5.38
2023-05-19T21:42:15.893Z,6.72
2023-05-19T21:44:42.766Z,4.25
2023-05-19T21:47:09.649Z,5.20
2023-05-19T21:49:38.292Z,7.28
2023-05-19T21:52:05.995Z,4.75
2023-05-19T21:54:32.805Z,4.53
2023-05-19T21:56:59.690Z,3.60
2023-05-19T21:59:26.868Z,5.65
2023-05-19T22:01:53.963Z,4.53
2023-05-19T22:04:21.542Z,3.92
2023-05-19T22:06:48.457Z,3.60
2023-05-19T22:09:15.384Z,3.60
2023-05-19T22:11:42.273Z,3.58
2023-05-19T22:14:09.080Z,3.85
2023-05-19T22:16:35.947Z,4.15
2023-05-19T22:19:02.822Z,3.00
2023-05-19T22:21:29.680Z,4.88
2023-05-19T22:23:56.488Z,5.47
2023-05-19T22:26:23.329Z,4.78
2023-05-19T22:28:50.527Z,5.07
2023-05-19T22:31:17.762Z,3.80
2023-05-19T22:33:44.702Z,6.07
2023-05-19T22:36:11.653Z,6.45
2023-05-19T22:38:38.455Z,4.78
2023-05-19T22:41:05.567Z,4.05
2023-05-19T22:43:32.537Z,3.95
2023-05-19T22:45:59.426Z,6.00
2023-05-19T22:48:26.311Z,4.82
2023-05-19T22:50:53.229Z,5.50
2023-05-19T22:53:20.028Z,7.10
2023-05-19T22:55:46.956Z,6.68
2023-05-19T22:58:13.804Z,4.43
2023-05-19T23:00:40.611Z,4.32
2023-05-19T23:03:07.467Z,5.85
2023-05-19T23:05:34.748Z,5.43
2023-05-19T23:08:01.931Z,4.25
2023-05-19T23:10:28.886Z,4.35
2023-05-19T23:12:55.726Z,4.07
2023-05-19T23:15:22.520Z,4.97
2023-05-19T23:17:49.279Z,4.80
2023-05-19T23:20:16.114Z,5.15
2023-05-19T23:22:42.931Z,4.15
2023-05-19T23:25:09.955Z,4.85
2023-05-19T23:27:36.861Z,5.05
2023-05-19T23:30:04.205Z,4.13
2023-05-19T23:32:31.183Z,4.07
2023-05-19T23:34:58.024Z,5.82
2023-05-19T23:37:24.946Z,5.35
2023-05-19T23:39:51.696Z,4.07
2023-05-19T23:42:18.522Z,3.97
2023-05-19T23:44:45.635Z,8.10
2023-05-19T23:47:12.512Z,4.03
2023-05-19T23:49:39.330Z,5.45
2023-05-19T23:52:06.525Z,4.60
2023-05-19T23:54:33.397Z,4.68
2023-05-19T23:57:02.476Z,3.88
2023-05-19T23:59:29.296Z,3.97
